Time;durP1;ratioP1;P1;durP2;ratioP2;P2;SDS_P1;SDS_P2;PMS_P1;PMS_P2;Temp;Humidity;BMP_temperature;BMP_pressure;BME280_temperature;BME280_humidity;BME280_pressure;Samples;Min_cycle;Max_cycle;Signal;HPM_P1;HPM_P2
2023/04/20 00:01:08;;;;;;;;;;;7.20;67.00;;;;;;5069875;28;19929;-64
2023/04/20 00:03:36;;;;;;;;;;;7.20;67.40;;;;;;5072316;28;20032;-65
2023/04/20 00:06:03;;;;;;;;;;;7.10;67.40;;;;;;5071134;28;19970;-65
2023/04/20 00:08:30;;;;;;;;;;;7.10;67.60;;;;;;5069695;28;19933;-66
2023/04/20 00:10:56;;;;;;;;;;;7.10;67.60;;;;;;5071069;28;20420;-65
2023/04/20 00:13:23;;;;;;;;;;;7.10;67.80;;;;;;5071183;28;19929;-65
2023/04/20 00:15:51;;;;;;;;;;;7.00;68.00;;;;;;5070326;28;19958;-64
2023/04/20 00:18:17;;;;;;;;;;;7.00;68.20;;;;;;5070938;28;19958;-65
2023/04/20 00:20:44;;;;;;;;;;;7.00;68.20;;;;;;5070636;28;19932;-63
2023/04/20 00:23:11;;;;;;;;;;;7.00;68.30;;;;;;5071383;28;19929;-64
2023/04/20 00:25:38;;;;;;;;;;;7.00;68.30;;;;;;5070251;28;19925;-63
2023/04/20 00:28:04;;;;;;;;;;;6.90;68.40;;;;;;5070324;28;19924;-65
2023/04/20 00:30:31;;;;;;;;;;;6.90;68.70;;;;;;5072464;28;19954;-65
2023/04/20 00:32:59;;;;;;;;;;;6.90;68.90;;;;;;5068609;28;19928;-65
2023/04/20 00:35:26;;;;;;;;;;;6.80;69.20;;;;;;5068317;28;20330;-63
2023/04/20 00:37:53;;;;;;;;;;;6.80;69.30;;;;;;5071857;28;19929;-64
2023/04/20 00:40:20;;;;;;;;;;;6.70;69.30;;;;;;5070235;28;19932;-65
2023/04/20 00:42:50;;;;;;;;;;;6.60;69.50;;;;;;5069631;28;20027;-64
2023/04/20 00:45:17;;;;;;;;;;;6.60;69.70;;;;;;5075260;28;20470;-64
2023/04/20 00:47:45;;;;;;;;;;;6.70;69.80;;;;;;5055080;28;20020;-65
2023/04/20 00:50:13;;;;;;;;;;;6.60;69.90;;;;;;5071809;28;19990;-65
2023/04/20 00:52:40;;;;;;;;;;;6.60;69.90;;;;;;5071436;28;19940;-65
2023/04/20 00:55:07;;;;;;;;;;;6.50;70.10;;;;;;5071326;28;19924;-65
2023/04/20 00:57:33;;;;;;;;;;;6.50;70.20;;;;;;5072024;28;20311;-65
2023/04/20 01:00:01;;;;;;;;;;;6.50;70.40;;;;;;5070117;28;20023;-65
2023/04/20 01:02:28;;;;;;;;;;;6.50;70.60;;;;;;5069465;28;19924;-64
2023/04/20 01:04:55;;;;;;;;;;;6.40;70.70;;;;;;5073023;28;19924;-72
2023/04/20 01:07:23;;;;;;;;;;;6.40;71.00;;;;;;5055898;28;19934;-66
2023/04/20 01:09:50;;;;;;;;;;;6.40;71.00;;;;;;5079405;28;20031;-66
2023/04/20 01:12:16;;;;;;;;;;;6.50;70.80;;;;;;5083945;28;19955;-64
2023/04/20 01:14:43;;;;;;;;;;;6.50;70.80;;;;;;5062344;28;19967;-63
2023/04/20 01:17:12;;;;;;;;;;;6.50;71.10;;;;;;5082128;28;20240;-64
2023/04/20 01:19:39;;;;;;;;;;;6.60;71.10;;;;;;5072189;28;20007;-64
2023/04/20 01:22:06;;;;;;;;;;;6.60;70.90;;;;;;5047189;28;19933;-63
2023/04/20 01:24:34;;;;;;;;;;;6.60;71.00;;;;;;5070962;28;19959;-66
2023/04/20 01:27:01;;;;;;;;;;;6.60;71.10;;;;;;5065425;28;19947;-66
2023/04/20 01:29:28;;;;;;;;;;;6.60;71.40;;;;;;5067943;28;19932;-63
2023/04/20 01:31:55;;;;;;;;;;;6.60;71.60;;;;;;5061267;28;19960;-64
2023/04/20 01:34:22;;;;;;;;;;;6.60;71.60;;;;;;5061258;28;19935;-64
2023/04/20 01:36:48;;;;;;;;;;;6.60;71.60;;;;;;5044031;28;19944;-66
2023/04/20 01:39:17;;;;;;;;;;;6.60;71.60;;;;;;5068482;28;19924;-64
2023/04/20 01:41:45;;;;;;;;;;;6.70;71.50;;;;;;5050666;28;19926;-65
2023/04/20 01:44:12;;;;;;;;;;;6.70;71.60;;;;;;5069831;28;19963;-66
2023/04/20 01:46:39;;;;;;;;;;;6.70;71.80;;;;;;5068624;28;19928;-64
2023/04/20 01:49:07;;;;;;;;;;;6.70;72.10;;;;;;5070075;28;20038;-65
2023/04/20 01:51:34;;;;;;;;;;;6.70;72.20;;;;;;5050208;28;20366;-65
2023/04/20 01:54:01;;;;;;;;;;;6.70;72.60;;;;;;5060313;28;20378;-65
2023/04/20 01:56:28;;;;;;;;;;;6.70;73.10;;;;;;5066228;28;20028;-64
2023/04/20 01:58:59;;;;;;;;;;;6.70;73.40;;;;;;5043987;28;19924;-65
2023/04/20 02:01:26;;;;;;;;;;;6.70;73.50;;;;;;5067131;28;20390;-65
2023/04/20 02:03:53;;;;;;;;;;;6.80;73.30;;;;;;5064641;28;20773;-64
2023/04/20 02:06:21;;;;;;;;;;;6.80;73.50;;;;;;5062989;28;20015;-63
2023/04/20 02:08:47;;;;;;;;;;;6.80;73.60;;;;;;5068361;28;19935;-63
2023/04/20 02:11:14;;;;;;;;;;;6.80;73.90;;;;;;5052041;28;20034;-64
2023/04/20 02:13:41;;;;;;;;;;;6.80;73.80;;;;;;5070432;28;19933;-64
2023/04/20 02:16:09;;;;;;;;;;;6.80;74.10;;;;;;5045569;28;19951;-64
2023/04/20 02:18:36;;;;;;;;;;;6.70;74.60;;;;;;5065486;28;19925;-63
2023/04/20 02:21:03;;;;;;;;;;;6.80;74.40;;;;;;5068713;28;19935;-62
2023/04/20 02:23:30;;;;;;;;;;;6.90;74.70;;;;;;5050869;28;19963;-65
2023/04/20 02:25:56;;;;;;;;;;;6.80;74.90;;;;;;5041709;28;20015;-63
2023/04/20 02:28:23;;;;;;;;;;;6.90;74.70;;;;;;5040733;28;19925;-64
2023/04/20 02:30:50;;;;;;;;;;;6.90;75.00;;;;;;5069038;28;20003;-64
2023/04/20 02:33:19;;;;;;;;;;;6.90;75.10;;;;;;5044599;28;19925;-63
2023/04/20 02:35:46;;;;;;;;;;;6.90;75.40;;;;;;5069300;28;19928;-64
2023/04/20 02:38:13;;;;;;;;;;;6.90;75.60;;;;;;5068499;28;19928;-64
2023/04/20 02:40:40;;;;;;;;;;;6.90;75.80;;;;;;5068934;28;19925;-63
2023/04/20 02:43:07;;;;;;;;;;;7.00;75.90;;;;;;5049748;28;19932;-63
2023/04/20 02:45:35;;;;;;;;;;;6.90;76.20;;;;;;5044204;28;19970;-64
2023/04/20 02:48:02;;;;;;;;;;;6.90;76.20;;;;;;5049043;28;19951;-63
2023/04/20 02:50:42;;;;;;;;;;;6.90;76.60;;;;;;5069526;28;19932;-64
2023/04/20 02:53:17;;;;;;;;;;;7.00;76.60;;;;;;5050670;28;20002;-63
2023/04/20 02:55:47;;;;;;;;;;;7.00;76.50;;;;;;5050607;28;19925;-64
2023/04/20 02:58:24;;;;;;;;;;;7.00;76.90;;;;;;5045234;28;19925;-64
2023/04/20 03:01:14;;;;;;;;;;;6.90;77.40;;;;;;5059508;28;19935;-62
2023/04/20 03:03:41;;;;;;;;;;;6.90;77.30;;;;;;5045500;28;19928;-63
2023/04/20 03:06:12;;;;;;;;;;;7.00;77.10;;;;;;5054320;28;19982;-64
2023/04/20 03:08:42;;;;;;;;;;;7.00;77.30;;;;;;5049365;28;20008;-64
2023/04/20 03:11:42;;;;;;;;;;;7.00;77.70;;;;;;5055208;28;19991;-64
2023/04/20 03:14:11;;;;;;;;;;;6.90;77.70;;;;;;5048197;28;19934;-64
2023/04/20 03:16:38;;;;;;;;;;;7.00;77.70;;;;;;5072131;28;20011;-63
2023/04/20 03:19:05;;;;;;;;;;;7.00;78.00;;;;;;5053209;28;19928;-63
2023/04/20 03:21:33;;;;;;;;;;;7.00;78.30;;;;;;5052538;28;19931;-63
2023/04/20 03:24:00;;;;;;;;;;;7.00;77.80;;;;;;5073911;28;20012;-63
2023/04/20 03:26:27;;;;;;;;;;;7.00;78.10;;;;;;5067471;28;20051;-64
2023/04/20 03:29:26;;;;;;;;;;;7.00;78.10;;;;;;5057090;28;19932;-64
2023/04/20 03:31:53;;;;;;;;;;;7.00;78.20;;;;;;5052870;28;20512;-64
2023/04/20 03:34:20;;;;;;;;;;;6.90;78.60;;;;;;5071649;28;19929;-64
2023/04/20 03:36:48;;;;;;;;;;;7.00;78.20;;;;;;5070010;28;19982;-64
2023/04/20 03:39:15;;;;;;;;;;;7.00;77.90;;;;;;5049672;28;20375;-63
2023/04/20 03:41:42;;;;;;;;;;;7.00;78.20;;;;;;5071764;28;19933;-64
2023/04/20 03:44:09;;;;;;;;;;;7.00;78.20;;;;;;5072182;28;19950;-64
2023/04/20 03:46:37;;;;;;;;;;;7.00;78.30;;;;;;5072380;28;19936;-64
2023/04/20 03:49:03;;;;;;;;;;;7.00;78.20;;;;;;5071726;28;19928;-64
2023/04/20 03:51:31;;;;;;;;;;;7.00;78.00;;;;;;5071474;28;19932;-64
2023/04/20 03:53:59;;;;;;;;;;;6.90;78.20;;;;;;5055197;28;20390;-63
2023/04/20 03:56:27;;;;;;;;;;;7.00;78.10;;;;;;5052338;28;19960;-63
2023/04/20 03:58:54;;;;;;;;;;;7.00;78.00;;;;;;5055402;28;20338;-64
2023/04/20 04:01:24;;;;;;;;;;;6.90;77.90;;;;;;5070661;28;20425;-64
2023/04/20 04:03:51;;;;;;;;;;;6.90;78.00;;;;;;5072365;28;19932;-63
2023/04/20 04:06:17;;;;;;;;;;;6.90;78.20;;;;;;5044756;28;19924;-64
2023/04/20 04:08:44;;;;;;;;;;;6.90;78.20;;;;;;5046616;28;19974;-64
2023/04/20 04:11:12;;;;;;;;;;;6.90;78.50;;;;;;5044798;28;19951;-63
2023/04/20 04:13:39;;;;;;;;;;;6.90;77.90;;;;;;5067156;28;19931;-64
2023/04/20 04:16:08;;;;;;;;;;;6.90;78.00;;;;;;5054766;28;19935;-64
2023/04/20 04:18:35;;;;;;;;;;;6.90;77.90;;;;;;5048671;28;19936;-62
2023/04/20 04:21:09;;;;;;;;;;;6.90;78.10;;;;;;5046459;28;19955;-64
2023/04/20 04:23:36;;;;;;;;;;;6.80;78.50;;;;;;5046605;28;20235;-63
2023/04/20 04:26:16;;;;;;;;;;;6.80;78.70;;;;;;5066923;28;19993;-64
2023/04/20 04:28:45;;;;;;;;;;;6.80;78.70;;;;;;5066466;28;19924;-63
2023/04/20 04:31:18;;;;;;;;;;;6.80;78.90;;;;;;5070428;28;19984;-64
2023/04/20 04:33:45;;;;;;;;;;;6.80;79.10;;;;;;5071386;28;19928;-64
2023/04/20 04:36:16;;;;;;;;;;;6.80;78.70;;;;;;5054096;28;19928;-63
2023/04/20 04:38:43;;;;;;;;;;;6.80;78.70;;;;;;5047856;28;19968;-63
2023/04/20 04:41:11;;;;;;;;;;;6.80;78.90;;;;;;5051995;28;19978;-64
2023/04/20 04:43:40;;;;;;;;;;;6.80;78.90;;;;;;5053054;28;19931;-64
2023/04/20 04:46:16;;;;;;;;;;;6.90;78.90;;;;;;5065470;28;20024;-63
2023/04/20 04:48:45;;;;;;;;;;;6.80;79.00;;;;;;5053595;28;20019;-64
2023/04/20 04:51:12;;;;;;;;;;;6.80;79.00;;;;;;5072049;28;19978;-65
2023/04/20 04:53:38;;;;;;;;;;;6.80;78.90;;;;;;5071050;28;19928;-67
2023/04/20 04:56:06;;;;;;;;;;;6.80;79.10;;;;;;5071228;28;19929;-63
2023/04/20 04:58:32;;;;;;;;;;;6.90;78.90;;;;;;5070442;28;20438;-64
2023/04/20 05:01:00;;;;;;;;;;;6.90;78.80;;;;;;5065279;28;19924;-64
2023/04/20 05:03:27;;;;;;;;;;;6.80;79.10;;;;;;5068183;28;19928;-65
2023/04/20 05:05:55;;;;;;;;;;;6.80;79.40;;;;;;5042491;28;19925;-65
2023/04/20 05:08:23;;;;;;;;;;;6.90;79.30;;;;;;5055311;28;20326;-64
2023/04/20 05:10:49;;;;;;;;;;;6.90;79.30;;;;;;5063741;28;19959;-64
2023/04/20 05:13:16;;;;;;;;;;;6.90;79.10;;;;;;5065201;28;19944;-63
2023/04/20 05:15:43;;;;;;;;;;;6.90;79.30;;;;;;5069671;28;19928;-61
2023/04/20 05:18:11;;;;;;;;;;;7.00;79.20;;;;;;5062223;28;19925;-65
2023/04/20 05:20:38;;;;;;;;;;;7.00;79.10;;;;;;5065578;28;19925;-64
2023/04/20 05:23:04;;;;;;;;;;;7.00;79.10;;;;;;5069125;28;19946;-63
2023/04/20 05:25:31;;;;;;;;;;;7.00;79.00;;;;;;5071061;28;20421;-65
2023/04/20 05:27:58;;;;;;;;;;;7.00;79.10;;;;;;5069100;28;20205;-65
2023/04/20 05:30:25;;;;;;;;;;;7.00;79.30;;;;;;5069413;28;19928;-64
2023/04/20 05:32:51;;;;;;;;;;;7.10;79.00;;;;;;5069161;28;19928;-65
2023/04/20 05:35:20;;;;;;;;;;;7.10;79.00;;;;;;5071220;28;19929;-64
2023/04/20 05:37:47;;;;;;;;;;;7.10;79.10;;;;;;5069119;28;20275;-64
2023/04/20 05:40:14;;;;;;;;;;;7.10;79.10;;;;;;5070033;28;20415;-63
2023/04/20 05:42:40;;;;;;;;;;;7.10;79.00;;;;;;5068803;28;19928;-64
2023/04/20 05:45:08;;;;;;;;;;;7.10;78.80;;;;;;5070543;28;20283;-63
2023/04/20 05:47:35;;;;;;;;;;;7.10;78.70;;;;;;5068864;28;19928;-65
2023/04/20 05:50:01;;;;;;;;;;;7.10;78.20;;;;;;5068228;28;19943;-64
2023/04/20 05:52:29;;;;;;;;;;;7.20;78.20;;;;;;5070320;28;19931;-65
2023/04/20 05:54:56;;;;;;;;;;;7.20;78.30;;;;;;5070766;28;19932;-64
2023/04/20 05:57:23;;;;;;;;;;;7.10;78.40;;;;;;5068857;28;20378;-64
2023/04/20 05:59:50;;;;;;;;;;;7.10;78.40;;;;;;5068785;28;20020;-64
2023/04/20 06:02:16;;;;;;;;;;;7.00;78.30;;;;;;5068528;28;19928;-65
2023/04/20 06:04:43;;;;;;;;;;;7.10;78.50;;;;;;5069482;28;19934;-64
2023/04/20 06:07:10;;;;;;;;;;;7.10;78.50;;;;;;5069317;28;19936;-63
2023/04/20 06:09:39;;;;;;;;;;;7.10;78.30;;;;;;5068985;28;19924;-64
2023/04/20 06:12:08;;;;;;;;;;;7.10;78.40;;;;;;5052462;28;19932;-64
2023/04/20 06:14:35;;;;;;;;;;;7.10;78.40;;;;;;5067653;28;20635;-63
2023/04/20 06:17:01;;;;;;;;;;;7.10;78.30;;;;;;5068986;28;20282;-64
2023/04/20 06:19:30;;;;;;;;;;;7.20;78.30;;;;;;5046090;28;20419;-62
2023/04/20 06:21:57;;;;;;;;;;;7.20;78.30;;;;;;5067691;28;20039;-64
2023/04/20 06:24:24;;;;;;;;;;;7.20;78.20;;;;;;5070782;28;20144;-64
2023/04/20 06:26:52;;;;;;;;;;;7.20;78.10;;;;;;5069279;28;19960;-64
2023/04/20 06:29:19;;;;;;;;;;;7.30;78.10;;;;;;5071105;28;20367;-63
2023/04/20 06:31:45;;;;;;;;;;;7.30;77.90;;;;;;5070038;28;19928;-65
2023/04/20 06:34:13;;;;;;;;;;;7.30;77.90;;;;;;5070750;28;19935;-65
2023/04/20 06:36:44;;;;;;;;;;;7.30;78.00;;;;;;5069642;28;19992;-63
2023/04/20 06:39:11;;;;;;;;;;;7.40;77.60;;;;;;5069902;28;19970;-64
2023/04/20 06:41:38;;;;;;;;;;;7.50;77.40;;;;;;5071441;28;19931;-64
2023/04/20 06:44:07;;;;;;;;;;;7.60;77.40;;;;;;5048823;28;19928;-63
2023/04/20 06:46:34;;;;;;;;;;;7.70;77.30;;;;;;5073958;28;19990;-65
2023/04/20 06:49:01;;;;;;;;;;;7.80;76.90;;;;;;5073651;28;19948;-64
2023/04/20 06:51:28;;;;;;;;;;;7.90;76.70;;;;;;5073370;28;19967;-64
2023/04/20 06:53:55;;;;;;;;;;;8.00;77.10;;;;;;5065597;28;19928;-64
2023/04/20 06:56:22;;;;;;;;;;;8.00;76.50;;;;;;5070243;28;20380;-63
2023/04/20 06:58:49;;;;;;;;;;;8.00;76.80;;;;;;5073592;28;20369;-64
2023/04/20 07:01:17;;;;;;;;;;;8.00;76.60;;;;;;5069435;28;19950;-63
2023/04/20 07:03:45;;;;;;;;;;;8.00;76.50;;;;;;5073487;28;19932;-64
2023/04/20 07:06:12;;;;;;;;;;;8.00;76.60;;;;;;5073189;28;20576;-65
2023/04/20 07:08:39;;;;;;;;;;;8.00;76.20;;;;;;5062027;28;20014;-65
2023/04/20 07:11:06;;;;;;;;;;;8.00;76.40;;;;;;5072659;28;19924;-63
2023/04/20 07:13:33;;;;;;;;;;;8.00;76.40;;;;;;5069814;28;20425;-65
2023/04/20 07:16:00;;;;;;;;;;;8.00;76.60;;;;;;5070411;28;20015;-65
2023/04/20 07:18:28;;;;;;;;;;;8.10;76.90;;;;;;5072590;28;19971;-63
2023/04/20 07:20:55;;;;;;;;;;;8.10;76.40;;;;;;5073944;28;19935;-64
2023/04/20 07:23:22;;;;;;;;;;;8.20;76.10;;;;;;5071104;28;20436;-64
2023/04/20 07:25:49;;;;;;;;;;;8.30;76.40;;;;;;5069038;28;19971;-65
2023/04/20 07:28:15;;;;;;;;;;;8.40;76.20;;;;;;5072971;28;20016;-63
2023/04/20 07:30:42;;;;;;;;;;;8.40;76.00;;;;;;5058164;28;19929;-64
2023/04/20 07:33:10;;;;;;;;;;;8.30;75.80;;;;;;5068874;28;19935;-64
2023/04/20 07:35:38;;;;;;;;;;;8.30;76.10;;;;;;5071613;28;20366;-65
2023/04/20 07:38:05;;;;;;;;;;;8.40;75.60;;;;;;5068714;28;19932;-65
2023/04/20 07:40:32;;;;;;;;;;;8.60;75.40;;;;;;5073077;28;19924;-64
2023/04/20 07:42:58;;;;;;;;;;;8.80;74.90;;;;;;5072822;28;19988;-64
2023/04/20 07:45:25;;;;;;;;;;;9.10;74.40;;;;;;5071531;28;20384;-63
2023/04/20 07:47:53;;;;;;;;;;;9.10;73.90;;;;;;5070008;28;19924;-63
2023/04/20 07:50:20;;;;;;;;;;;9.20;73.00;;;;;;5072099;28;20417;-63
2023/04/20 07:52:48;;;;;;;;;;;9.20;72.00;;;;;;5072137;28;19931;-64
2023/04/20 07:55:16;;;;;;;;;;;9.20;72.00;;;;;;5069264;28;19938;-64
2023/04/20 07:57:42;;;;;;;;;;;9.10;71.80;;;;;;5054837;28;19932;-63
2023/04/20 08:00:10;;;;;;;;;;;9.30;71.30;;;;;;5069522;28;19925;-65
2023/04/20 08:02:40;;;;;;;;;;;9.60;71.10;;;;;;5068224;28;19961;-65
2023/04/20 08:05:07;;;;;;;;;;;9.90;70.60;;;;;;5071096;28;19932;-64
2023/04/20 08:07:34;;;;;;;;;;;10.20;69.90;;;;;;5070885;28;19934;-64
2023/04/20 08:10:02;;;;;;;;;;;10.30;69.20;;;;;;5072235;28;20295;-63
2023/04/20 08:12:29;;;;;;;;;;;10.60;68.00;;;;;;5070907;28;20322;-63
2023/04/20 08:14:59;;;;;;;;;;;10.70;68.20;;;;;;5071327;28;19924;-65
2023/04/20 08:17:26;;;;;;;;;;;10.80;67.30;;;;;;5071717;28;19925;-64
2023/04/20 08:19:52;;;;;;;;;;;10.90;66.60;;;;;;5072501;28;19982;-64
2023/04/20 08:22:19;;;;;;;;;;;11.10;66.60;;;;;;5071125;28;19928;-63
2023/04/20 08:24:46;;;;;;;;;;;11.20;66.30;;;;;;5072346;28;19924;-64
2023/04/20 08:27:14;;;;;;;;;;;11.30;65.80;;;;;;5072431;28;19928;-65
2023/04/20 08:29:41;;;;;;;;;;;11.50;65.10;;;;;;5072265;28;19924;-64
2023/04/20 08:32:08;;;;;;;;;;;11.70;64.10;;;;;;5069158;28;19925;-64
2023/04/20 08:34:35;;;;;;;;;;;11.90;63.60;;;;;;5069893;28;20389;-63
2023/04/20 08:37:01;;;;;;;;;;;11.70;63.40;;;;;;5070756;28;19936;-65
2023/04/20 08:39:29;;;;;;;;;;;11.70;62.80;;;;;;5071018;28;19935;-64
2023/04/20 08:41:56;;;;;;;;;;;12.00;62.60;;;;;;5071024;28;20004;-65
2023/04/20 08:44:24;;;;;;;;;;;12.20;62.30;;;;;;5071717;28;19978;-65
2023/04/20 08:46:51;;;;;;;;;;;12.30;61.90;;;;;;5072176;28;19929;-65
2023/04/20 08:49:18;;;;;;;;;;;12.60;61.40;;;;;;5070795;28;19932;-65
2023/04/20 08:51:46;;;;;;;;;;;12.60;61.00;;;;;;5070084;28;19935;-66
2023/04/20 08:54:13;;;;;;;;;;;12.50;60.80;;;;;;5069315;28;19933;-64
2023/04/20 08:56:41;;;;;;;;;;;12.60;60.50;;;;;;5070553;28;20405;-65
2023/04/20 08:59:09;;;;;;;;;;;12.60;59.80;;;;;;5069823;28;19928;-64
2023/04/20 09:01:38;;;;;;;;;;;12.80;59.70;;;;;;5068303;28;20264;-65
2023/04/20 09:04:14;;;;;;;;;;;13.00;58.70;;;;;;5069838;28;20332;-64
2023/04/20 09:06:43;;;;;;;;;;;13.10;58.20;;;;;;5071594;28;19944;-65
2023/04/20 09:09:10;;;;;;;;;;;13.20;58.40;;;;;;5069916;28;20660;-65
2023/04/20 09:11:36;;;;;;;;;;;13.40;57.40;;;;;;5069220;28;19928;-64
2023/04/20 09:14:05;;;;;;;;;;;13.50;58.30;;;;;;5070542;28;20023;-64
2023/04/20 09:16:33;;;;;;;;;;;13.60;57.50;;;;;;5070789;28;19925;-66
2023/04/20 09:19:01;;;;;;;;;;;13.80;57.80;;;;;;5071012;28;20402;-66
2023/04/20 09:21:28;;;;;;;;;;;14.00;57.40;;;;;;5070025;28;19928;-66
2023/04/20 09:23:56;;;;;;;;;;;13.70;56.50;;;;;;5063017;28;20024;-64
2023/04/20 09:26:22;;;;;;;;;;;13.80;55.70;;;;;;5063839;28;19980;-65
2023/04/20 09:28:49;;;;;;;;;;;14.00;55.40;;;;;;5063311;28;19925;-66
2023/04/20 09:31:20;;;;;;;;;;;14.00;54.70;;;;;;5066525;28;20326;-65
2023/04/20 09:33:55;;;;;;;;;;;14.20;55.20;;;;;;5070301;28;19931;-64
2023/04/20 09:36:23;;;;;;;;;;;14.30;55.20;;;;;;5063152;28;19928;-64
2023/04/20 09:39:02;;;;;;;;;;;14.40;54.40;;;;;;5069955;28;19929;-64
2023/04/20 09:41:29;;;;;;;;;;;14.60;54.70;;;;;;5070584;28;19951;-65
2023/04/20 09:43:56;;;;;;;;;;;14.40;53.70;;;;;;5069225;28;19928;-65
2023/04/20 09:46:23;;;;;;;;;;;14.20;53.30;;;;;;5068540;28;19924;-65
2023/04/20 09:48:50;;;;;;;;;;;14.10;53.20;;;;;;5067522;28;20287;-65
2023/04/20 09:51:17;;;;;;;;;;;14.10;52.80;;;;;;5069465;28;20016;-66
2023/04/20 09:53:45;;;;;;;;;;;14.00;52.60;;;;;;5066759;28;19924;-65
2023/04/20 09:56:15;;;;;;;;;;;14.00;52.90;;;;;;5070463;28;20392;-65
2023/04/20 09:58:42;;;;;;;;;;;13.90;52.50;;;;;;5070405;28;19924;-64
2023/04/20 10:01:09;;;;;;;;;;;13.90;52.40;;;;;;5066032;28;19924;-65
2023/04/20 10:03:36;;;;;;;;;;;13.90;52.20;;;;;;5068949;28;19924;-64
2023/04/20 10:06:03;;;;;;;;;;;13.90;52.10;;;;;;5070038;28;19928;-65
2023/04/20 10:08:39;;;;;;;;;;;13.90;51.60;;;;;;5063392;28;19928;-63
2023/04/20 10:11:07;;;;;;;;;;;13.90;52.10;;;;;;5068191;28;19935;-66
2023/04/20 10:13:34;;;;;;;;;;;13.90;51.80;;;;;;5065125;28;19932;-65
2023/04/20 10:16:01;;;;;;;;;;;13.80;50.70;;;;;;5069972;28;19998;-67
2023/04/20 10:18:28;;;;;;;;;;;13.70;51.30;;;;;;5070104;28;19928;-64
2023/04/20 10:21:04;;;;;;;;;;;13.70;50.10;;;;;;5066455;28;20154;-66
2023/04/20 10:23:31;;;;;;;;;;;13.60;50.50;;;;;;5070315;28;19931;-66
2023/04/20 10:25:59;;;;;;;;;;;13.60;50.60;;;;;;5068750;28;19929;-65
2023/04/20 10:28:38;;;;;;;;;;;13.70;51.40;;;;;;5065538;28;19925;-66
2023/04/20 10:31:06;;;;;;;;;;;13.70;51.90;;;;;;5070740;28;20249;-67
2023/04/20 10:33:32;;;;;;;;;;;13.70;52.70;;;;;;5069770;28;19964;-66
2023/04/20 10:35:59;;;;;;;;;;;13.40;50.50;;;;;;5064902;28;19924;-66
2023/04/20 10:38:30;;;;;;;;;;;13.40;50.70;;;;;;5066778;28;20347;-65
2023/04/20 10:40:58;;;;;;;;;;;13.40;50.20;;;;;;5066819;28;19929;-65
2023/04/20 10:43:25;;;;;;;;;;;13.50;49.50;;;;;;5065780;28;19936;-65
2023/04/20 10:45:53;;;;;;;;;;;13.50;48.90;;;;;;5059921;28;20268;-67
2023/04/20 10:48:20;;;;;;;;;;;13.40;48.30;;;;;;5067532;28;19924;-64
2023/04/20 10:50:47;;;;;;;;;;;13.40;48.90;;;;;;5068986;28;19971;-66
2023/04/20 10:53:17;;;;;;;;;;;13.30;50.80;;;;;;5064839;28;20315;-66
2023/04/20 10:55:44;;;;;;;;;;;13.60;51.30;;;;;;5067298;28;19925;-65
2023/04/20 10:58:20;;;;;;;;;;;13.70;51.80;;;;;;5069267;28;19933;-65
2023/04/20 11:00:56;;;;;;;;;;;13.70;53.00;;;;;;5068757;28;19935;-66
2023/04/20 11:03:24;;;;;;;;;;;13.80;52.10;;;;;;5067916;28;19932;-66
2023/04/20 11:05:51;;;;;;;;;;;13.80;50.80;;;;;;5069261;28;19928;-65
2023/04/20 11:08:18;;;;;;;;;;;13.80;50.10;;;;;;5067540;28;19936;-65
2023/04/20 11:10:45;;;;;;;;;;;13.70;48.30;;;;;;5068386;28;19947;-64
2023/04/20 11:13:19;;;;;;;;;;;13.70;48.30;;;;;;5061845;28;20053;-68
2023/04/20 11:15:45;;;;;;;;;;;14.00;48.20;;;;;;5069482;28;19972;-66
2023/04/20 11:18:12;;;;;;;;;;;14.20;48.00;;;;;;5070135;28;20007;-67
2023/04/20 11:20:51;;;;;;;;;;;14.20;47.50;;;;;;5069994;28;19955;-67
2023/04/20 11:23:19;;;;;;;;;;;14.20;47.40;;;;;;5064160;28;19932;-65
2023/04/20 11:25:49;;;;;;;;;;;14.20;47.20;;;;;;5059383;28;20371;-67
2023/04/20 11:28:15;;;;;;;;;;;14.20;48.30;;;;;;5065304;28;19928;-66
2023/04/20 11:30:43;;;;;;;;;;;14.10;47.10;;;;;;5067745;28;19928;-66
2023/04/20 11:33:09;;;;;;;;;;;14.00;47.10;;;;;;5069074;28;19924;-65
2023/04/20 11:35:37;;;;;;;;;;;14.00;47.40;;;;;;5065659;28;19932;-67
2023/04/20 11:38:05;;;;;;;;;;;14.20;46.30;;;;;;5070072;28;19931;-67
2023/04/20 11:40:32;;;;;;;;;;;14.20;47.40;;;;;;5072435;28;19968;-67
2023/04/20 11:42:59;;;;;;;;;;;14.20;47.60;;;;;;5072986;28;19930;-65
2023/04/20 11:45:26;;;;;;;;;;;14.20;47.80;;;;;;5071993;28;19973;-66
2023/04/20 11:47:53;;;;;;;;;;;14.20;48.50;;;;;;5072220;28;19932;-64
2023/04/20 11:50:21;;;;;;;;;;;14.30;47.70;;;;;;5072984;28;19924;-65
2023/04/20 11:52:47;;;;;;;;;;;14.50;47.70;;;;;;5071593;28;20410;-65
2023/04/20 11:55:15;;;;;;;;;;;14.50;47.10;;;;;;5072144;28;19951;-66
2023/04/20 11:57:42;;;;;;;;;;;14.40;48.00;;;;;;5071500;28;19939;-66
2023/04/20 12:00:09;;;;;;;;;;;14.20;47.50;;;;;;5070775;28;19925;-66
2023/04/20 12:02:42;;;;;;;;;;;14.00;46.90;;;;;;5073406;28;19955;-66
2023/04/20 12:05:09;;;;;;;;;;;13.80;47.50;;;;;;5071054;28;19933;-65
2023/04/20 12:07:36;;;;;;;;;;;13.70;47.80;;;;;;5071956;28;19929;-66
2023/04/20 12:10:03;;;;;;;;;;;13.70;47.60;;;;;;5073461;28;19946;-65
2023/04/20 12:12:32;;;;;;;;;;;13.70;47.30;;;;;;5074004;28;19928;-67
2023/04/20 12:14:59;;;;;;;;;;;13.60;46.50;;;;;;5072924;28;19924;-68
2023/04/20 12:17:26;;;;;;;;;;;13.70;47.00;;;;;;5073497;28;19935;-66
2023/04/20 12:19:53;;;;;;;;;;;13.90;47.10;;;;;;5073433;28;19932;-70
2023/04/20 12:22:19;;;;;;;;;;;13.90;48.30;;;;;;5073062;28;19924;-67
2023/04/20 12:24:46;;;;;;;;;;;13.80;46.70;;;;;;5072462;28;19925;-65
2023/04/20 12:27:13;;;;;;;;;;;13.80;47.10;;;;;;5075711;28;19924;-65
2023/04/20 12:29:41;;;;;;;;;;;13.80;47.20;;;;;;5079670;28;20421;-65
2023/04/20 12:32:08;;;;;;;;;;;13.80;47.00;;;;;;5078779;28;19928;-66
2023/04/20 12:34:34;;;;;;;;;;;13.80;47.80;;;;;;5077660;28;19928;-67
2023/04/20 12:37:01;;;;;;;;;;;13.70;48.00;;;;;;5078067;28;19924;-65
2023/04/20 12:39:28;;;;;;;;;;;13.60;47.40;;;;;;5080356;28;19932;-67
2023/04/20 12:41:55;;;;;;;;;;;13.40;48.40;;;;;;5080868;28;20009;-65
2023/04/20 12:44:22;;;;;;;;;;;13.30;49.00;;;;;;5077422;28;19970;-64
2023/04/20 12:46:50;;;;;;;;;;;13.20;50.20;;;;;;5074981;28;19935;-66
2023/04/20 12:49:17;;;;;;;;;;;13.10;51.40;;;;;;5073144;28;19924;-64
2023/04/20 12:51:44;;;;;;;;;;;12.90;51.90;;;;;;5073743;28;19929;-65
2023/04/20 12:54:10;;;;;;;;;;;12.80;52.50;;;;;;5071407;28;20499;-66
2023/04/20 12:56:37;;;;;;;;;;;12.80;52.30;;;;;;5071606;28;19936;-66
2023/04/20 12:59:04;;;;;;;;;;;12.80;52.10;;;;;;5072020;28;19932;-67
2023/04/20 13:01:31;;;;;;;;;;;12.70;51.50;;;;;;5071105;28;20019;-67
2023/04/20 13:03:59;;;;;;;;;;;12.80;51.40;;;;;;5071569;28;19940;-66
2023/04/20 13:06:26;;;;;;;;;;;12.90;51.50;;;;;;5071130;28;19925;-65
2023/04/20 13:08:53;;;;;;;;;;;12.90;51.00;;;;;;5071975;28;19924;-66
2023/04/20 13:11:20;;;;;;;;;;;12.90;50.50;;;;;;5071194;28;19928;-66
2023/04/20 13:13:47;;;;;;;;;;;12.90;50.90;;;;;;5071344;28;19934;-66
2023/04/20 13:16:15;;;;;;;;;;;13.00;50.00;;;;;;5070841;28;19931;-65
2023/04/20 13:18:42;;;;;;;;;;;13.00;49.30;;;;;;5068940;28;20452;-67
2023/04/20 13:21:10;;;;;;;;;;;12.90;49.50;;;;;;5069981;28;19929;-66
2023/04/20 13:23:38;;;;;;;;;;;12.90;49.10;;;;;;5070242;28;19928;-67
2023/04/20 13:26:05;;;;;;;;;;;12.80;48.80;;;;;;5070400;28;20457;-67
2023/04/20 13:28:32;;;;;;;;;;;12.80;49.10;;;;;;5042557;28;19929;-66
2023/04/20 13:30:59;;;;;;;;;;;12.70;48.90;;;;;;5071896;28;20395;-67
2023/04/20 13:33:25;;;;;;;;;;;12.70;49.20;;;;;;5070845;28;20009;-67
2023/04/20 13:35:52;;;;;;;;;;;12.70;49.20;;;;;;5066248;28;19999;-66
2023/04/20 13:38:20;;;;;;;;;;;12.70;48.80;;;;;;5065950;28;19998;-65
2023/04/20 13:40:47;;;;;;;;;;;12.60;49.30;;;;;;5071682;28;19968;-66
2023/04/20 13:43:14;;;;;;;;;;;12.60;49.00;;;;;;5069219;28;19932;-64
2023/04/20 13:45:41;;;;;;;;;;;12.60;49.30;;;;;;5070729;28;19931;-66
2023/04/20 13:48:08;;;;;;;;;;;12.60;50.60;;;;;;5067355;28;19939;-66
2023/04/20 13:50:34;;;;;;;;;;;12.60;49.80;;;;;;5071234;28;20379;-67
2023/04/20 13:53:02;;;;;;;;;;;12.60;49.70;;;;;;5070133;28;19931;-65
2023/04/20 13:55:30;;;;;;;;;;;12.60;50.50;;;;;;5072248;28;19928;-67
2023/04/20 13:57:57;;;;;;;;;;;12.60;50.90;;;;;;5071161;28;20350;-67
2023/04/20 14:00:24;;;;;;;;;;;12.60;51.30;;;;;;5047917;28;19928;-66
2023/04/20 14:02:51;;;;;;;;;;;12.60;51.70;;;;;;5071914;28;19951;-65
2023/04/20 14:05:18;;;;;;;;;;;12.40;52.10;;;;;;5065959;28;19951;-66
2023/04/20 14:07:45;;;;;;;;;;;12.40;52.10;;;;;;5070238;28;19932;-66
2023/04/20 14:10:11;;;;;;;;;;;12.30;52.60;;;;;;5069955;28;20299;-66
2023/04/20 14:12:39;;;;;;;;;;;12.30;53.00;;;;;;5070829;28;19932;-67
2023/04/20 14:15:06;;;;;;;;;;;12.30;53.40;;;;;;5069553;28;20284;-66
2023/04/20 14:17:33;;;;;;;;;;;12.30;53.90;;;;;;5052277;28;20337;-67
2023/04/20 14:20:00;;;;;;;;;;;12.20;54.60;;;;;;5069311;28;19935;-67
2023/04/20 14:22:32;;;;;;;;;;;12.20;54.80;;;;;;5069235;28;19971;-65
2023/04/20 14:24:59;;;;;;;;;;;12.20;55.50;;;;;;5069181;28;19924;-65
2023/04/20 14:27:26;;;;;;;;;;;12.20;56.00;;;;;;5071761;28;19931;-66